Grosse Pointe Woods, Michigan
Current Conditions -  °F | °C
As of 3:16 AM on Saturday 20 Dec 2014 (Local Time) from KDET Reporting Station
Broken Clouds Broken Clouds  
Wind Chill: 23°   Ceiling: 2900
Heat Index: 23°   Visibility: 10mi
Dew Point: 17°   Wind: 0mph
Humidity: 78%   Direction: NA
Pressure: 30.3"   Gusts: NA
Location:  42.4243°N, 82.8975°W
Report Text: KDET 200816Z 00000KT 10SM BKN029 M05/M08 A3030 RMK AO2 T10501083 $
Loading
Personal Weather Stations






























Interactive Weather Map New forecast layout! Learn more

10-Day Weather Forecast

Advertisements
Track Severe Weather on mobile